Time;durP1;ratioP1;P1;durP2;ratioP2;P2;SDS_P1;SDS_P2;PMS_P1;PMS_P2;Temp;Humidity;BMP_temperature;BMP_pressure;BME280_temperature;BME280_humidity;BME280_pressure;Samples;Min_cycle;Max_cycle;Signal;HPM_P1;HPM_P2
2021/10/21 00:02:16;;;;;;;10.43;4.85;;;14.40;93.40;;;;;;5055203;28;20369;-75
2021/10/21 00:04:41;;;;;;;11.32;4.65;;;14.40;94.10;;;;;;5037422;28;20171;-75
2021/10/21 00:07:08;;;;;;;10.65;4.82;;;14.50;93.50;;;;;;5054803;28;20053;-75
2021/10/21 00:09:33;;;;;;;7.30;3.40;;;14.40;93.50;;;;;;5037469;28;20434;-75
2021/10/21 00:12:00;;;;;;;5.72;3.20;;;14.40;93.20;;;;;;5037320;28;20087;-75
2021/10/21 00:14:25;;;;;;;14.15;4.43;;;14.50;92.80;;;;;;5037311;28;20371;-75
2021/10/21 00:16:51;;;;;;;17.45;5.65;;;14.50;92.70;;;;;;5055118;28;20029;-75
2021/10/21 00:19:17;;;;;;;8.43;3.70;;;14.50;93.30;;;;;;5037190;28;20025;-75
2021/10/21 00:21:42;;;;;;;10.02;4.75;;;14.50;92.80;;;;;;5054864;28;20025;-75
2021/10/21 00:24:08;;;;;;;10.52;4.97;;;14.60;92.80;;;;;;5054558;28;20029;-73
2021/10/21 00:26:33;;;;;;;11.75;5.22;;;14.60;93.30;;;;;;5054818;28;20025;-73
2021/10/21 00:28:59;;;;;;;13.93;4.85;;;14.60;93.20;;;;;;5054898;28;20033;-74
2021/10/21 00:31:25;;;;;;;8.77;3.10;;;14.70;93.00;;;;;;5036885;28;20056;-73
2021/10/21 00:33:50;;;;;;;6.85;3.38;;;14.70;92.80;;;;;;5055377;28;20029;-74
2021/10/21 00:36:16;;;;;;;6.53;2.80;;;14.70;93.10;;;;;;5036851;28;20024;-73
2021/10/21 00:38:41;;;;;;;6.80;2.90;;;14.70;93.60;;;;;;5054801;28;20045;-73
2021/10/21 00:41:07;;;;;;;10.85;4.15;;;14.70;94.10;;;;;;5054653;28;20112;-73
2021/10/21 00:43:41;;;;;;;8.82;3.97;;;14.70;93.00;;;;;;5037037;28;20458;-74
2021/10/21 00:46:11;;;;;;;6.68;3.30;;;14.60;93.80;;;;;;5054324;28;20025;-73
2021/10/21 00:48:38;;;;;;;10.63;5.25;;;14.60;94.20;;;;;;5054805;28;20031;-74
2021/10/21 00:51:07;;;;;;;9.55;4.32;;;14.60;93.70;;;;;;5036594;28;20025;-74
2021/10/21 00:53:34;;;;;;;7.93;4.28;;;14.60;93.80;;;;;;5036598;28;20017;-74
2021/10/21 00:56:05;;;;;;;8.52;4.18;;;14.60;93.20;;;;;;5054367;28;20056;-74
2021/10/21 00:58:32;;;;;;;8.25;3.03;;;14.70;93.00;;;;;;5054367;28;20025;-75
2021/10/21 01:00:58;;;;;;;7.90;3.80;;;14.70;92.70;;;;;;5054391;28;20119;-74
2021/10/21 01:03:24;;;;;;;11.73;4.07;;;14.80;92.50;;;;;;5036429;28;20029;-74
2021/10/21 01:05:50;;;;;;;7.78;3.55;;;14.90;93.10;;;;;;5036387;28;20040;-72
2021/10/21 01:08:16;;;;;;;9.48;4.50;;;14.90;92.20;;;;;;5053848;28;20466;-74
2021/10/21 01:10:42;;;;;;;6.72;3.15;;;14.90;92.10;;;;;;5054580;28;20151;-74
2021/10/21 01:13:07;;;;;;;7.07;2.92;;;14.90;92.00;;;;;;5036063;28;20027;-75
2021/10/21 01:15:33;;;;;;;13.82;4.00;;;15.00;91.80;;;;;;5036245;28;20120;-74
2021/10/21 01:17:59;;;;;;;7.43;2.60;;;15.00;91.80;;;;;;5053861;28;20088;-75
2021/10/21 01:20:27;;;;;;;6.82;2.35;;;14.90;91.00;;;;;;5054208;28;20524;-74
2021/10/21 01:22:53;;;;;;;5.93;2.38;;;14.90;90.90;;;;;;5036994;28;20101;-74
2021/10/21 01:25:19;;;;;;;5.32;2.17;;;14.90;90.10;;;;;;5054932;28;20438;-75
2021/10/21 01:27:46;;;;;;;6.03;1.70;;;14.90;89.50;;;;;;5036793;28;20119;-74
2021/10/21 01:30:21;;;;;;;7.55;2.38;;;14.90;89.60;;;;;;5055667;28;20048;-75
2021/10/21 01:32:47;;;;;;;6.07;2.00;;;14.90;88.30;;;;;;5058985;28;20017;-74
2021/10/21 01:35:13;;;;;;;4.80;1.67;;;14.80;87.80;;;;;;5066739;28;20025;-75
2021/10/21 01:37:39;;;;;;;5.68;1.75;;;14.90;87.70;;;;;;5061407;28;20071;-75
2021/10/21 01:40:05;;;;;;;6.28;1.80;;;14.80;88.50;;;;;;5036137;28;20033;-75
2021/10/21 01:42:31;;;;;;;8.20;1.70;;;14.80;88.40;;;;;;5035907;28;20029;-75
2021/10/21 01:44:57;;;;;;;6.47;1.73;;;14.70;87.30;;;;;;5054748;28;20155;-74
2021/10/21 01:47:23;;;;;;;5.15;1.38;;;14.70;87.90;;;;;;5054375;28;20017;-74
2021/10/21 01:49:48;;;;;;;5.78;1.25;;;14.60;87.30;;;;;;5036611;28;20036;-75
2021/10/21 01:52:15;;;;;;;5.43;0.80;;;14.30;86.90;;;;;;5053388;28;20461;-74
2021/10/21 01:54:41;;;;;;;2.40;0.70;;;14.00;85.10;;;;;;5053477;28;20029;-74
2021/10/21 01:57:07;;;;;;;6.05;0.73;;;13.80;85.00;;;;;;5051818;28;20093;-74
2021/10/21 01:59:32;;;;;;;3.38;0.63;;;13.70;87.30;;;;;;5053314;28;20029;-74
2021/10/21 02:01:58;;;;;;;1.83;0.90;;;13.50;86.70;;;;;;5052898;28;20023;-74
2021/10/21 02:04:23;;;;;;;4.68;0.90;;;13.40;87.10;;;;;;5052940;28;20029;-74
2021/10/21 02:06:49;;;;;;;4.03;0.77;;;13.30;88.20;;;;;;5053225;28;20483;-74
2021/10/21 02:09:14;;;;;;;3.13;0.80;;;13.10;89.40;;;;;;5052782;28;20058;-73
2021/10/21 02:11:40;;;;;;;3.13;0.90;;;13.00;90.10;;;;;;5035470;28;20048;-73
2021/10/21 02:14:05;;;;;;;5.30;1.30;;;12.80;91.00;;;;;;5052959;28;20021;-73
2021/10/21 02:16:31;;;;;;;5.20;1.00;;;12.70;91.30;;;;;;5034825;28;20106;-73
2021/10/21 02:18:57;;;;;;;3.58;1.13;;;12.60;91.20;;;;;;5053018;28;20381;-74
2021/10/21 02:21:22;;;;;;;6.57;1.38;;;12.60;91.50;;;;;;5052635;28;20028;-74
2021/10/21 02:23:48;;;;;;;5.20;1.40;;;12.50;91.40;;;;;;5034962;28;20487;-76
2021/10/21 02:26:14;;;;;;;2.97;0.90;;;12.40;91.80;;;;;;5034699;28;20021;-75
2021/10/21 02:28:39;;;;;;;7.60;1.30;;;12.40;91.70;;;;;;5052520;28;20025;-74
2021/10/21 02:31:05;;;;;;;4.80;1.25;;;12.30;92.00;;;;;;5052711;28;20025;-75
2021/10/21 02:33:31;;;;;;;2.60;0.93;;;12.30;92.00;;;;;;5052267;28;20100;-75
2021/10/21 02:35:56;;;;;;;8.02;1.20;;;12.30;92.30;;;;;;5053064;28;20025;-75
2021/10/21 02:38:22;;;;;;;5.22;1.10;;;12.30;92.00;;;;;;5034585;28;20552;-75
2021/10/21 02:40:47;;;;;;;3.40;0.90;;;12.30;92.20;;;;;;5052749;28;20373;-75
2021/10/21 02:43:13;;;;;;;5.80;0.82;;;12.30;92.00;;;;;;5052823;28;20045;-74
2021/10/21 02:45:41;;;;;;;3.47;0.80;;;12.30;91.60;;;;;;5053071;28;20127;-73
2021/10/21 02:48:07;;;;;;;6.47;1.10;;;12.30;91.50;;;;;;5052826;28;20029;-74
2021/10/21 02:50:33;;;;;;;8.52;1.40;;;12.40;91.30;;;;;;5052760;28;20477;-74
2021/10/21 02:52:58;;;;;;;7.30;1.45;;;12.40;90.40;;;;;;5034534;28;20369;-76
2021/10/21 02:55:24;;;;;;;5.30;1.38;;;12.50;90.70;;;;;;5052267;28;20028;-75
2021/10/21 02:57:50;;;;;;;9.35;1.95;;;12.60;90.10;;;;;;5034442;28;20043;-76
2021/10/21 03:00:16;;;;;;;6.60;1.45;;;12.60;90.30;;;;;;5052296;28;20078;-76
2021/10/21 03:02:42;;;;;;;7.97;1.20;;;12.60;88.40;;;;;;5052329;28;20049;-74
2021/10/21 03:05:08;;;;;;;8.02;1.33;;;12.70;89.80;;;;;;5034279;28;20121;-75
2021/10/21 03:07:34;;;;;;;7.20;1.35;;;12.70;90.10;;;;;;5051744;28;20432;-74
2021/10/21 03:09:59;;;;;;;3.78;0.73;;;12.80;90.20;;;;;;5052621;28;20022;-74
2021/10/21 03:12:25;;;;;;;5.57;0.90;;;12.80;89.10;;;;;;5052489;28;20096;-75
2021/10/21 03:14:51;;;;;;;3.65;0.85;;;12.90;88.40;;;;;;5034977;28;20112;-75
2021/10/21 03:17:17;;;;;;;5.45;1.13;;;12.90;89.40;;;;;;5052529;28;20035;-75
2021/10/21 03:19:42;;;;;;;8.38;1.08;;;12.90;89.20;;;;;;5053459;28;20029;-76
2021/10/21 03:22:08;;;;;;;5.05;0.80;;;12.90;90.10;;;;;;5057954;28;20373;-73
2021/10/21 03:24:33;;;;;;;4.18;1.10;;;12.90;90.10;;;;;;5039666;28;20024;-73
2021/10/21 03:26:59;;;;;;;4.97;1.00;;;12.90;90.40;;;;;;5053109;28;20029;-73
2021/10/21 03:29:25;;;;;;;4.75;0.90;;;12.80;90.90;;;;;;5034187;28;20017;-74
2021/10/21 03:31:51;;;;;;;5.20;1.13;;;12.70;91.20;;;;;;5034581;28;20025;-73
2021/10/21 03:34:16;;;;;;;4.07;0.80;;;12.70;91.50;;;;;;5051762;28;20343;-74
2021/10/21 03:36:42;;;;;;;5.07;0.85;;;12.60;91.70;;;;;;5052536;28;20029;-74
2021/10/21 03:39:07;;;;;;;5.28;0.90;;;12.50;91.90;;;;;;5052020;28;20025;-74
2021/10/21 03:41:33;;;;;;;6.88;1.30;;;12.40;92.20;;;;;;5051689;28;20021;-74
2021/10/21 03:43:58;;;;;;;5.63;1.23;;;12.50;92.40;;;;;;5052312;28;20084;-74
2021/10/21 03:46:24;;;;;;;6.47;1.35;;;12.40;92.30;;;;;;5051548;28;20025;-75
2021/10/21 03:48:50;;;;;;;7.38;0.95;;;12.30;92.50;;;;;;5052715;28;20024;-74
2021/10/21 03:51:15;;;;;;;7.10;1.90;;;12.30;92.60;;;;;;5051367;28;20071;-73
2021/10/21 03:53:41;;;;;;;7.28;1.05;;;12.30;92.70;;;;;;5051883;28;20017;-75
2021/10/21 03:56:09;;;;;;;5.97;1.10;;;12.30;92.80;;;;;;5051623;28;20047;-74
2021/10/21 03:58:36;;;;;;;9.65;1.95;;;12.30;92.80;;;;;;5033564;28;20520;-73
2021/10/21 04:01:02;;;;;;;7.22;1.23;;;12.30;92.80;;;;;;5051773;28;20481;-75
2021/10/21 04:03:27;;;;;;;6.50;1.35;;;12.30;92.70;;;;;;5033675;28;20020;-73
2021/10/21 04:05:53;;;;;;;4.03;0.95;;;12.30;92.50;;;;;;5051322;28;20482;-74
2021/10/21 04:08:18;;;;;;;6.90;1.42;;;12.40;92.70;;;;;;5041551;28;20041;-74
2021/10/21 04:10:44;;;;;;;7.65;0.95;;;12.30;92.70;;;;;;5043680;28;20051;-74
2021/10/21 04:13:10;;;;;;;6.72;1.10;;;12.30;92.80;;;;;;5044895;28;20021;-74
2021/10/21 04:15:36;;;;;;;7.07;1.30;;;12.30;92.90;;;;;;5051313;28;20036;-74
2021/10/21 04:18:02;;;;;;;3.95;1.08;;;12.20;93.00;;;;;;5051199;28;20033;-73
2021/10/21 04:20:27;;;;;;;6.05;1.08;;;12.20;93.30;;;;;;5053828;28;20052;-74
2021/10/21 04:22:53;;;;;;;7.97;1.30;;;12.20;93.50;;;;;;5055029;28;20060;-75
2021/10/21 04:25:18;;;;;;;4.90;1.33;;;12.20;93.70;;;;;;5054645;28;20025;-74
2021/10/21 04:27:44;;;;;;;4.03;1.60;;;12.10;93.80;;;;;;5054777;28;20033;-75
2021/10/21 04:30:11;;;;;;;4.35;0.93;;;12.10;94.10;;;;;;5055323;28;20021;-75
2021/10/21 04:32:37;;;;;;;5.53;1.17;;;12.00;94.30;;;;;;5054666;28;20028;-74
2021/10/21 04:35:03;;;;;;;6.90;1.20;;;12.00;94.20;;;;;;5054896;28;20021;-74
2021/10/21 04:37:28;;;;;;;3.75;0.90;;;12.00;94.30;;;;;;5054444;28;20354;-74
2021/10/21 04:39:54;;;;;;;5.25;1.00;;;12.00;94.20;;;;;;5054776;28;20032;-75
2021/10/21 04:42:19;;;;;;;9.07;1.33;;;12.00;94.30;;;;;;5036638;28;20477;-74
2021/10/21 04:44:47;;;;;;;6.47;1.48;;;12.00;94.40;;;;;;5036324;28;20029;-74
2021/10/21 04:47:13;;;;;;;6.85;1.40;;;12.00;94.30;;;;;;5036885;28;20414;-74
2021/10/21 04:49:38;;;;;;;12.00;1.30;;;12.00;94.40;;;;;;5054647;28;20029;-74
2021/10/21 04:52:04;;;;;;;5.90;1.33;;;12.00;94.50;;;;;;5054973;28;20041;-75
2021/10/21 04:54:33;;;;;;;8.88;1.40;;;11.90;94.50;;;;;;5054588;28;20025;-74
2021/10/21 04:56:59;;;;;;;7.93;1.38;;;11.90;94.60;;;;;;5036501;28;20039;-74
2021/10/21 04:59:24;;;;;;;4.43;1.20;;;11.90;94.70;;;;;;5036445;28;20045;-72
2021/10/21 05:01:52;;;;;;;4.35;1.10;;;11.90;94.80;;;;;;5036613;28;20028;-73
2021/10/21 05:04:18;;;;;;;5.55;1.10;;;11.90;94.80;;;;;;5054007;28;20083;-73
2021/10/21 05:06:43;;;;;;;6.45;1.10;;;11.90;94.80;;;;;;5036643;28;20029;-73
2021/10/21 05:09:09;;;;;;;4.75;1.00;;;11.90;94.90;;;;;;5055589;28;20112;-71
2021/10/21 05:11:34;;;;;;;7.57;1.23;;;11.90;94.70;;;;;;5038387;28;20381;-73
2021/10/21 05:14:00;;;;;;;6.30;1.45;;;11.90;94.80;;;;;;5056192;28;20414;-74
2021/10/21 05:16:26;;;;;;;9.02;1.80;;;11.90;94.90;;;;;;5054100;28;20025;-75
2021/10/21 05:18:51;;;;;;;2.92;1.27;;;11.90;95.00;;;;;;5054052;28;20434;-74
2021/10/21 05:21:17;;;;;;;5.13;1.30;;;11.90;95.10;;;;;;5053729;28;20025;-75
2021/10/21 05:23:43;;;;;;;6.65;1.45;;;11.90;95.50;;;;;;5053897;28;20244;-74
2021/10/21 05:26:08;;;;;;;7.88;1.35;;;11.90;95.20;;;;;;5054048;28;20032;-74
2021/10/21 05:28:34;;;;;;;7.60;1.67;;;11.90;95.20;;;;;;5035942;28;20036;-74
2021/10/21 05:30:59;;;;;;;6.35;1.50;;;11.90;95.20;;;;;;5035802;28;20049;-75
2021/10/21 05:33:26;;;;;;;6.57;1.92;;;11.90;95.30;;;;;;5035685;28;20418;-74
2021/10/21 05:35:52;;;;;;;6.72;2.13;;;11.90;95.40;;;;;;5054019;28;20040;-75
2021/10/21 05:38:18;;;;;;;4.75;1.90;;;11.90;95.40;;;;;;5053526;28;20033;-74
2021/10/21 05:40:43;;;;;;;9.18;2.20;;;11.80;95.50;;;;;;5054505;28;20461;-74
2021/10/21 05:43:10;;;;;;;9.05;1.88;;;11.80;95.70;;;;;;5036758;28;20025;-74
2021/10/21 05:45:36;;;;;;;7.57;2.95;;;11.80;95.70;;;;;;5054439;28;20025;-73
2021/10/21 05:48:01;;;;;;;4.47;1.70;;;11.90;95.50;;;;;;5055133;28;20532;-75
2021/10/21 05:50:27;;;;;;;3.28;1.20;;;11.80;95.30;;;;;;5053932;28;20108;-74
2021/10/21 05:52:52;;;;;;;3.95;1.08;;;11.70;94.50;;;;;;5053844;28;20016;-73
2021/10/21 05:55:18;;;;;;;1.75;0.70;;;11.70;94.00;;;;;;5054214;28;20524;-74
2021/10/21 05:57:44;;;;;;;4.25;1.05;;;11.60;94.10;;;;;;5053640;28;20036;-73
2021/10/21 06:00:11;;;;;;;2.65;0.80;;;11.40;94.10;;;;;;5053467;28;20108;-74
2021/10/21 06:02:37;;;;;;;4.88;0.90;;;11.30;94.20;;;;;;5035412;28;20140;-74
2021/10/21 06:05:04;;;;;;;2.55;0.80;;;11.20;94.20;;;;;;5053407;28;20497;-74
2021/10/21 06:07:30;;;;;;;4.13;0.63;;;11.10;94.40;;;;;;5052842;28;20123;-74
2021/10/21 06:09:59;;;;;;;3.25;0.80;;;11.00;94.30;;;;;;5053105;28;20170;-75
2021/10/21 06:12:25;;;;;;;5.07;0.80;;;11.00;94.50;;;;;;5035299;28;20063;-74
2021/10/21 06:14:51;;;;;;;1.48;0.52;;;11.00;94.70;;;;;;5035543;28;20052;-73
2021/10/21 06:17:23;;;;;;;7.10;1.20;;;10.90;94.60;;;;;;5053160;28;20028;-74
2021/10/21 06:19:49;;;;;;;4.90;0.73;;;10.80;94.60;;;;;;5053128;28;20112;-74
2021/10/21 06:22:18;;;;;;;3.08;0.70;;;10.80;94.60;;;;;;5053229;28;20108;-74
2021/10/21 06:24:45;;;;;;;4.45;0.85;;;10.70;94.60;;;;;;5034648;28;20028;-73
2021/10/21 06:27:11;;;;;;;2.97;0.73;;;10.70;94.70;;;;;;5052944;28;20056;-73
2021/10/21 06:29:39;;;;;;;3.50;0.60;;;10.80;94.80;;;;;;5053016;28;20377;-74
2021/10/21 06:32:06;;;;;;;4.28;0.90;;;10.70;94.90;;;;;;5052783;28;20028;-74
2021/10/21 06:34:31;;;;;;;5.28;1.38;;;10.70;95.10;;;;;;5052461;28;20480;-74
2021/10/21 06:36:57;;;;;;;4.70;0.95;;;10.70;95.20;;;;;;5034798;28;20023;-74
2021/10/21 06:39:22;;;;;;;4.00;1.13;;;10.70;95.30;;;;;;5052351;28;20032;-74
2021/10/21 06:41:48;;;;;;;7.90;1.58;;;10.70;95.40;;;;;;5033858;28;20032;-74
2021/10/21 06:44:14;;;;;;;7.72;1.98;;;10.70;95.50;;;;;;5052620;28;20027;-74
2021/10/21 06:46:39;;;;;;;6.90;1.00;;;10.70;95.60;;;;;;5034339;28;20124;-73
2021/10/21 06:49:05;;;;;;;6.43;0.98;;;10.70;95.60;;;;;;5034549;28;20462;-74
2021/10/21 06:51:31;;;;;;;8.30;1.02;;;10.70;95.60;;;;;;5052408;28;20032;-74
2021/10/21 06:53:56;;;;;;;8.13;1.38;;;10.70;95.60;;;;;;5034391;28;20071;-74
2021/10/21 06:56:22;;;;;;;8.25;1.33;;;10.70;95.50;;;;;;5052905;28;20033;-73
2021/10/21 06:58:47;;;;;;;17.00;2.28;;;10.70;95.50;;;;;;5054926;28;20031;-73
2021/10/21 07:01:13;;;;;;;8.40;1.13;;;10.80;95.40;;;;;;5053870;28;20431;-72
2021/10/21 07:03:39;;;;;;;7.70;1.30;;;10.80;95.30;;;;;;5034431;28;20033;-73
2021/10/21 07:06:04;;;;;;;8.93;1.52;;;10.80;95.30;;;;;;5034176;28;20474;-73
2021/10/21 07:08:30;;;;;;;11.48;1.63;;;10.90;95.20;;;;;;5033666;28;20017;-73
2021/10/21 07:11:01;;;;;;;8.52;1.73;;;10.80;95.00;;;;;;5034411;28;20028;-73
2021/10/21 07:13:27;;;;;;;20.70;2.97;;;10.80;95.00;;;;;;5051966;28;20025;-75
2021/10/21 07:15:52;;;;;;;12.63;1.65;;;10.90;95.00;;;;;;5051910;28;20029;-74
2021/10/21 07:18:18;;;;;;;11.80;1.67;;;10.90;94.90;;;;;;5051830;28;20029;-74
2021/10/21 07:20:44;;;;;;;10.77;1.88;;;10.90;94.90;;;;;;5051826;28;20031;-74
2021/10/21 07:23:09;;;;;;;7.93;2.05;;;10.90;94.80;;;;;;5034161;28;20022;-75
2021/10/21 07:25:35;;;;;;;16.73;1.77;;;10.90;94.60;;;;;;5033936;28;20112;-74
2021/10/21 07:28:02;;;;;;;10.27;1.90;;;11.00;94.40;;;;;;5033967;28;20033;-73
2021/10/21 07:30:29;;;;;;;19.13;3.78;;;11.00;94.50;;;;;;5027544;28;20460;-73
2021/10/21 07:32:57;;;;;;;14.88;3.05;;;11.00;94.30;;;;;;5025233;28;20449;-74
2021/10/21 07:35:24;;;;;;;14.98;2.38;;;11.10;94.20;;;;;;5044816;28;20033;-75
2021/10/21 07:37:50;;;;;;;8.70;1.50;;;11.10;94.30;;;;;;5025594;28;20029;-73
2021/10/21 07:40:16;;;;;;;14.10;2.67;;;11.10;94.30;;;;;;5044309;28;20036;-74
2021/10/21 07:42:42;;;;;;;15.55;2.65;;;11.10;94.40;;;;;;5043534;28;20367;-73
2021/10/21 07:45:10;;;;;;;11.13;2.30;;;11.20;94.40;;;;;;5025433;28;20142;-74
2021/10/21 07:47:37;;;;;;;16.65;2.40;;;11.20;94.20;;;;;;5043896;28;20052;-74
2021/10/21 07:50:06;;;;;;;13.10;2.70;;;11.20;94.00;;;;;;5043252;28;20045;-74
2021/10/21 07:52:31;;;;;;;15.80;3.00;;;11.20;94.20;;;;;;5039049;28;20112;-73
2021/10/21 07:54:57;;;;;;;15.25;2.97;;;11.20;93.70;;;;;;5049239;28;20108;-72
2021/10/21 07:57:23;;;;;;;15.43;2.92;;;11.20;92.90;;;;;;5054915;28;20071;-74
2021/10/21 07:59:48;;;;;;;19.27;2.92;;;11.20;93.20;;;;;;5055353;28;20033;-73
2021/10/21 08:02:15;;;;;;;19.77;3.47;;;11.30;93.10;;;;;;5055251;28;20025;-73
2021/10/21 08:04:41;;;;;;;13.32;3.15;;;11.30;93.10;;;;;;5054942;28;20057;-73
2021/10/21 08:07:07;;;;;;;17.48;2.50;;;11.30;92.60;;;;;;5055395;28;20104;-74
2021/10/21 08:09:32;;;;;;;12.52;2.97;;;11.40;92.70;;;;;;5054966;28;20048;-73
2021/10/21 08:12:00;;;;;;;12.18;2.20;;;11.40;92.80;;;;;;5055411;28;20025;-74
2021/10/21 08:14:26;;;;;;;12.02;2.17;;;11.50;92.90;;;;;;5055348;28;20094;-75
2021/10/21 08:16:52;;;;;;;16.70;2.88;;;11.60;92.70;;;;;;5055503;28;20072;-75
2021/10/21 08:19:18;;;;;;;19.23;3.08;;;11.80;91.00;;;;;;5055267;28;20028;-73
2021/10/21 08:21:47;;;;;;;19.15;2.42;;;12.10;90.10;;;;;;5055361;28;20472;-73
2021/10/21 08:24:18;;;;;;;13.80;2.33;;;12.20;87.10;;;;;;5055193;28;20022;-73
2021/10/21 08:26:44;;;;;;;10.23;2.28;;;12.70;86.20;;;;;;5055332;28;20022;-74
2021/10/21 08:29:10;;;;;;;12.68;2.20;;;13.20;85.00;;;;;;5055071;28;20021;-74
2021/10/21 08:31:36;;;;;;;14.32;2.53;;;13.50;78.60;;;;;;5055598;28;20028;-74
2021/10/21 08:34:02;;;;;;;11.05;2.15;;;13.80;83.60;;;;;;5037432;28;20580;-74
2021/10/21 08:36:28;;;;;;;12.60;2.63;;;14.20;79.90;;;;;;5037233;28;20029;-72
2021/10/21 08:38:54;;;;;;;10.60;1.65;;;14.60;76.90;;;;;;5055209;28;20029;-73
2021/10/21 08:41:27;;;;;;;11.50;2.10;;;14.90;78.00;;;;;;5055718;28;20031;-74
2021/10/21 08:43:53;;;;;;;13.82;2.70;;;15.00;74.20;;;;;;5055820;28;20031;-75
2021/10/21 08:46:25;;;;;;;14.25;2.47;;;15.20;74.30;;;;;;5039427;28;20025;-74
2021/10/21 08:48:58;;;;;;;9.60;1.65;;;15.30;71.10;;;;;;5061944;28;20056;-73
2021/10/21 08:51:25;;;;;;;8.52;1.77;;;15.30;70.50;;;;;;5045086;28;20021;-74
2021/10/21 08:53:51;;;;;;;9.80;1.40;;;15.30;72.20;;;;;;5058420;28;20032;-73
2021/10/21 08:56:21;;;;;;;9.60;2.00;;;15.00;73.70;;;;;;5037654;28;20013;-75
2021/10/21 08:58:47;;;;;;;10.57;1.55;;;14.90;72.20;;;;;;5055057;28;20032;-75
2021/10/21 09:01:18;;;;;;;9.93;2.03;;;14.80;73.40;;;;;;5036902;28;20025;-74
2021/10/21 09:03:59;;;;;;;10.80;1.90;;;14.40;76.90;;;;;;5054462;28;20029;-74
2021/10/21 09:06:48;;;;;;;10.05;2.08;;;14.00;78.40;;;;;;5053468;28;20035;-73
2021/10/21 09:09:25;;;;;;;13.48;2.50;;;13.60;78.40;;;;;;5054667;28;20032;-73
2021/10/21 09:12:10;;;;;;;12.82;2.55;;;13.30;80.70;;;;;;5054146;28;20032;-73
2021/10/21 09:14:41;;;;;;;9.68;2.10;;;13.00;81.80;;;;;;5036254;28;20039;-74
2021/10/21 09:17:08;;;;;;;9.75;2.22;;;12.70;83.80;;;;;;5036232;28;20036;-72
2021/10/21 09:19:35;;;;;;;5.75;1.27;;;12.50;85.80;;;;;;5054312;28;20535;-73
2021/10/21 09:22:01;;;;;;;13.63;3.17;;;12.20;86.50;;;;;;5035818;28;20029;-74
2021/10/21 09:24:28;;;;;;;10.60;1.77;;;12.00;88.00;;;;;;5053837;28;20331;-75
2021/10/21 09:27:11;;;;;;;11.13;2.38;;;11.80;90.00;;;;;;5054168;28;20035;-72
2021/10/21 09:29:39;;;;;;;9.40;1.70;;;11.70;91.10;;;;;;5053832;28;20485;-73
2021/10/21 09:32:20;;;;;;;5.55;1.52;;;11.60;91.00;;;;;;5054131;28;20029;-73
2021/10/21 09:34:57;;;;;;;10.07;1.90;;;11.50;90.80;;;;;;5053735;28;20371;-73
2021/10/21 09:37:42;;;;;;;5.68;1.75;;;11.40;91.70;;;;;;5053956;28;20108;-73
2021/10/21 09:40:14;;;;;;;14.43;2.20;;;11.40;91.60;;;;;;5054696;28;20033;-74
2021/10/21 09:42:45;;;;;;;14.85;2.35;;;11.30;92.00;;;;;;5053923;28;20488;-74
2021/10/21 09:45:18;;;;;;;7.63;1.65;;;11.30;92.10;;;;;;5054104;28;20027;-74
2021/10/21 09:47:46;;;;;;;9.50;1.85;;;11.30;92.80;;;;;;5035433;28;20031;-74
2021/10/21 09:50:21;;;;;;;12.05;2.10;;;11.30;92.80;;;;;;5054147;28;20025;-73
2021/10/21 09:53:05;;;;;;;8.15;1.80;;;11.20;92.80;;;;;;5053726;28;20032;-74
2021/10/21 09:55:32;;;;;;;6.97;1.10;;;11.20;93.40;;;;;;5054903;28;20036;-73
2021/10/21 09:58:02;;;;;;;8.52;1.80;;;11.20;93.30;;;;;;5036335;28;20024;-74
2021/10/21 10:00:32;;;;;;;;;;;11.10;93.50;;;;;;5054351;28;20029;-74
2021/10/21 10:03:22;;;;;;;10.60;1.60;;;11.10;93.80;;;;;;5054372;28;19905;-74
2021/10/21 10:05:53;;;;;;;10.55;1.85;;;11.10;93.90;;;;;;5023254;28;20041;-75
2021/10/21 10:08:20;;;;;;;11.27;2.10;;;11.00;94.00;;;;;;5035009;28;20470;-74
2021/10/21 10:10:49;;;;;;;10.32;1.60;;;11.00;94.50;;;;;;5053184;28;20027;-74
2021/10/21 10:13:16;;;;;;;13.80;1.88;;;11.00;94.60;;;;;;5052955;28;20025;-73
2021/10/21 10:15:44;;;;;;;14.23;2.17;;;11.00;94.90;;;;;;5052933;28;20108;-73
2021/10/21 10:18:15;;;;;;;11.57;1.88;;;11.00;94.80;;;;;;5052332;28;20029;-73
2021/10/21 10:20:43;;;;;;;9.02;1.90;;;11.30;95.30;;;;;;5052592;28;20033;-74
2021/10/21 10:23:11;;;;;;;8.85;2.00;;;11.70;95.20;;;;;;5052478;28;20021;-73
2021/10/21 10:25:45;;;;;;;7.53;1.90;;;12.00;94.10;;;;;;5052483;28;20021;-74
2021/10/21 10:28:10;;;;;;;11.63;2.20;;;12.40;93.70;;;;;;5054229;28;20116;-73
2021/10/21 10:30:43;;;;;;;8.48;1.80;;;12.70;92.60;;;;;;5052457;28;20108;-74
2021/10/21 10:33:09;;;;;;;12.88;2.40;;;12.70;92.40;;;;;;5053080;28;20028;-74
2021/10/21 10:35:41;;;;;;;9.30;2.00;;;12.60;92.60;;;;;;5037872;28;20025;-74
2021/10/21 10:38:08;;;;;;;7.35;1.55;;;12.70;92.90;;;;;;5058702;28;20065;-73
2021/10/21 10:40:45;;;;;;;10.07;1.63;;;13.10;92.70;;;;;;5054284;28;20052;-74
2021/10/21 10:43:18;;;;;;;13.38;1.73;;;13.30;90.80;;;;;;5052884;28;20481;-74
2021/10/21 10:45:49;;;;;;;9.18;1.30;;;13.30;91.00;;;;;;5052487;28;20027;-74
2021/10/21 10:48:36;;;;;;;8.60;1.35;;;13.20;91.00;;;;;;5052551;28;20100;-74
2021/10/21 10:51:01;;;;;;;14.85;2.08;;;13.10;91.40;;;;;;5034276;28;20021;-74
2021/10/21 10:53:50;;;;;;;5.93;1.20;;;13.00;91.10;;;;;;5052270;28;20020;-74
2021/10/21 10:56:55;;;;;;;13.20;1.60;;;12.90;91.40;;;;;;5034544;28;20051;-72
2021/10/21 10:59:22;;;;;;;9.73;1.77;;;12.80;91.50;;;;;;4970520;28;20411;-74
2021/10/21 11:01:50;;;;;;;9.55;2.22;;;12.70;91.80;;;;;;4971089;28;20030;-74
2021/10/21 11:04:56;;;;;;;21.55;2.08;;;12.70;91.70;;;;;;5003295;28;20049;-73
2021/10/21 11:07:46;;;;;;;11.00;2.08;;;12.80;92.10;;;;;;5052185;28;20061;-74
2021/10/21 11:10:32;;;;;;;10.45;2.05;;;12.90;91.30;;;;;;5052151;28;20029;-74
2021/10/21 11:12:59;;;;;;;8.85;1.88;;;12.90;91.30;;;;;;5052346;28;20040;-74
2021/10/21 11:15:33;;;;;;;9.52;2.10;;;13.00;90.80;;;;;;5034215;28;20413;-74
2021/10/21 11:18:03;;;;;;;5.70;1.50;;;13.00;90.20;;;;;;5034237;28;20032;-73
2021/10/21 11:20:32;;;;;;;12.85;2.38;;;13.00;90.60;;;;;;5033975;28;20036;-74
2021/10/21 11:23:06;;;;;;;14.25;2.35;;;12.90;90.20;;;;;;5052182;28;20032;-73
2021/10/21 11:25:34;;;;;;;8.00;1.50;;;12.80;91.30;;;;;;5034171;28;20017;-73
2021/10/21 11:28:01;;;;;;;9.40;2.05;;;12.70;91.30;;;;;;5051978;28;20100;-73
2021/10/21 11:30:32;;;;;;;15.85;2.22;;;12.60;90.60;;;;;;5037707;28;20037;-73
2021/10/21 11:33:00;;;;;;;12.25;3.20;;;12.60;89.30;;;;;;5056327;28;20029;-73
2021/10/21 11:35:35;;;;;;;9.52;1.83;;;12.60;88.70;;;;;;5039087;28;20500;-74
2021/10/21 11:38:03;;;;;;;7.28;1.60;;;12.60;86.60;;;;;;5038848;28;20028;-73
2021/10/21 11:40:43;;;;;;;8.27;1.88;;;12.60;87.50;;;;;;5038916;28;20025;-73
2021/10/21 11:43:24;;;;;;;10.88;2.13;;;12.60;90.10;;;;;;5056754;28;20059;-74
2021/10/21 11:45:58;;;;;;;9.32;2.88;;;12.70;88.20;;;;;;5056599;28;20034;-74
2021/10/21 11:48:28;;;;;;;11.77;2.08;;;12.90;86.60;;;;;;5055773;28;20025;-74
2021/10/21 11:50:54;;;;;;;9.93;2.22;;;13.30;85.40;;;;;;5055940;28;20025;-74
2021/10/21 11:53:21;;;;;;;5.15;0.90;;;13.40;82.60;;;;;;5056026;28;20063;-75
2021/10/21 11:55:48;;;;;;;3.85;0.70;;;;;;;;;;5056353;28;20033;-74
2021/10/21 11:58:23;;;;;;;1.58;0.47;;;12.70;80.70;;;;;;5037838;28;20021;-73
2021/10/21 12:00:51;;;;;;;5.00;0.93;;;12.20;85.60;;;;;;5055973;28;20025;-74
2021/10/21 12:03:17;;;;;;;2.80;0.60;;;11.80;87.30;;;;;;5037986;28;20029;-74
2021/10/21 12:05:44;;;;;;;3.97;0.70;;;11.40;87.20;;;;;;5055523;28;20323;-74
2021/10/21 12:08:12;;;;;;;1.60;0.57;;;11.20;87.90;;;;;;5055478;28;20465;-73
2021/10/21 12:10:43;;;;;;;4.50;1.05;;;11.00;88.70;;;;;;5055448;28;20036;-72
2021/10/21 12:13:21;;;;;;;2.90;0.50;;;10.80;89.80;;;;;;5055349;28;20076;-73
2021/10/21 12:15:50;;;;;;;4.75;0.85;;;10.70;90.30;;;;;;5037512;28;20029;-72
2021/10/21 12:18:17;;;;;;;3.95;1.00;;;10.70;90.30;;;;;;5055245;28;20134;-72
2021/10/21 12:21:03;;;;;;;6.35;1.00;;;10.60;90.80;;;;;;5055719;28;20036;-73
2021/10/21 12:23:34;;;;;;;9.23;1.40;;;10.60;91.00;;;;;;5058197;28;20412;-71
2021/10/21 12:26:04;;;;;;;6.25;1.23;;;10.60;91.50;;;;;;5057589;28;20103;-72
2021/10/21 12:28:48;;;;;;;6.03;1.50;;;10.60;91.40;;;;;;5055124;28;20024;-81
2021/10/21 12:31:17;;;;;;;7.43;2.95;;;10.60;91.00;;;;;;5033294;28;20029;-73
2021/10/21 12:34:01;;;;;;;8.55;2.33;;;10.50;91.30;;;;;;5054480;28;20040;-73
2021/10/21 12:36:31;;;;;;;4.82;1.65;;;10.50;91.30;;;;;;5054554;28;20025;-73
2021/10/21 12:39:11;;;;;;;10.37;3.83;;;10.40;91.30;;;;;;5054583;28;20102;-73
2021/10/21 12:41:53;;;;;;;8.75;2.25;;;10.40;91.90;;;;;;5035585;28;20226;-73
2021/10/21 12:44:24;;;;;;;5.38;1.85;;;10.50;92.10;;;;;;5054771;28;20458;-73
2021/10/21 12:47:05;;;;;;;7.47;2.70;;;10.50;92.10;;;;;;5055164;28;20104;-73
2021/10/21 12:49:30;;;;;;;6.97;1.52;;;10.60;92.10;;;;;;5054902;28;20021;-73
2021/10/21 12:52:11;;;;;;;5.65;1.08;;;10.70;92.20;;;;;;5054729;28;20036;-73